Time;durP1;ratioP1;P1;durP2;ratioP2;P2;SDS_P1;SDS_P2;PMS_P1;PMS_P2;Temp;Humidity;BMP_temperature;BMP_pressure;BME280_temperature;BME280_humidity;BME280_pressure;Samples;Min_cycle;Max_cycle;Signal;HPM_P1;HPM_P2
2022/12/13 00:01:20;;;;;;;2.83;1.00;;;-3.80;91.70;;;;;;5620903;25;20464;-73
2022/12/13 00:03:55;;;;;;;2.00;0.90;;;-3.80;91.70;;;;;;5636773;25;20367;-73
2022/12/13 00:06:26;;;;;;;2.00;1.00;;;-3.80;91.70;;;;;;5659729;25;20037;-74
2022/12/13 00:09:25;;;;;;;1.45;0.70;;;-3.70;91.70;;;;;;5706033;25;20032;-74
2022/12/13 00:12:31;;;;;;;2.13;1.00;;;-3.70;91.70;;;;;;5709848;25;20035;-74
2022/12/13 00:15:12;;;;;;;3.58;1.35;;;-3.80;91.70;;;;;;5706218;25;20091;-74
2022/12/13 00:18:09;;;;;;;2.55;1.00;;;-3.80;91.70;;;;;;5730769;25;20047;-74
2022/12/13 00:21:32;;;;;;;1.92;1.02;;;-3.80;91.70;;;;;;5730473;25;20056;-74
2022/12/13 00:24:12;;;;;;;2.78;0.90;;;-3.90;91.70;;;;;;5761854;24;20031;-74
2022/12/13 00:27:01;;;;;;;2.58;0.95;;;-3.80;91.70;;;;;;5828280;24;20019;-74
2022/12/13 00:29:27;;;;;;;2.25;1.15;;;-3.90;91.70;;;;;;5919854;24;20079;-74
2022/12/13 00:31:52;;;;;;;1.48;0.70;;;-3.90;91.70;;;;;;6001974;23;20023;-74
2022/12/13 00:34:18;;;;;;;2.00;0.80;;;-3.90;91.70;;;;;;6034995;23;20082;-73
2022/12/13 00:36:44;;;;;;;1.48;0.88;;;-4.00;91.80;;;;;;6032088;23;20011;-75
2022/12/13 00:39:12;;;;;;;1.83;0.85;;;-4.00;91.80;;;;;;6034973;23;20333;-73
2022/12/13 00:41:39;;;;;;;1.67;0.80;;;-4.00;91.80;;;;;;6035261;23;20011;-74
2022/12/13 00:44:05;;;;;;;1.90;0.98;;;-3.90;91.80;;;;;;6011403;23;20018;-74
2022/12/13 00:46:38;;;;;;;2.05;1.02;;;-4.00;91.80;;;;;;6011624;23;20340;-75
2022/12/13 00:49:08;;;;;;;1.45;0.88;;;-4.10;91.80;;;;;;6011676;23;20013;-74
2022/12/13 00:55:43;;;;;;;2.80;1.00;;;-4.00;91.80;;;;;;5818469;24;20085;-73
2022/12/13 00:58:09;;;;;;;2.10;1.10;;;-4.00;91.80;;;;;;5840017;24;20420;-73
2022/12/13 01:00:34;;;;;;;2.30;1.00;;;-4.00;91.70;;;;;;5853937;24;20041;-74
2022/12/13 01:04:25;;;;;;;1.10;0.70;;;-4.00;91.70;;;;;;5890590;24;20025;-74
2022/12/13 01:46:49;;;;;;;3.92;0.95;;;-4.30;91.60;;;;;;5921629;24;20028;-74
2022/12/13 01:49:28;;;;;;;2.58;1.00;;;-4.30;91.60;;;;;;5924814;24;20021;-74
2022/12/13 01:52:29;;;;;;;2.40;0.98;;;-4.20;91.70;;;;;;5902699;24;20084;-74
2022/12/13 01:55:36;;;;;;;2.75;0.90;;;-4.30;91.70;;;;;;5907603;24;20025;-75
2022/12/13 01:58:03;;;;;;;1.63;0.70;;;-4.30;91.70;;;;;;5921209;24;20463;-74
2022/12/13 02:00:30;;;;;;;2.00;0.98;;;-4.30;91.70;;;;;;5953149;24;20319;-74
2022/12/13 02:02:57;;;;;;;2.20;0.80;;;-4.20;91.80;;;;;;5977320;24;20018;-74
2022/12/13 02:05:40;;;;;;;2.10;0.95;;;-4.30;91.80;;;;;;5955314;24;20438;-75
2022/12/13 02:08:09;;;;;;;3.22;1.10;;;-4.30;91.80;;;;;;5955578;24;20060;-75
2022/12/13 02:18:32;;;;;;;1.95;0.90;;;-4.30;91.70;;;;;;5939624;23;20106;-74
2022/12/13 02:25:25;;;;;;;2.58;0.77;;;-4.20;91.70;;;;;;6001407;23;20078;-74
2022/12/13 02:28:25;;;;;;;1.70;0.55;;;-4.40;91.60;;;;;;5868093;24;20022;-74
2022/12/13 02:31:08;;;;;;;1.73;0.98;;;-4.30;91.70;;;;;;5868313;24;20026;-74
2022/12/13 02:34:13;;;;;;;1.52;0.80;;;-4.30;91.70;;;;;;5840028;24;20097;-74
2022/12/13 02:37:06;;;;;;;2.45;1.13;;;-4.40;91.70;;;;;;5814573;24;20015;-75
2022/12/13 02:42:42;;;;;;;1.38;0.73;;;-4.40;91.70;;;;;;5719490;24;20095;-73
2022/12/13 02:45:37;;;;;;;1.92;0.63;;;-4.40;91.70;;;;;;5688058;25;20499;-74
2022/12/13 02:48:06;;;;;;;1.17;0.68;;;-4.30;91.80;;;;;;5696879;25;20471;-75
2022/12/13 02:50:58;;;;;;;2.05;0.90;;;-4.30;91.70;;;;;;5710109;25;20025;-76
2022/12/13 02:53:35;;;;;;;;;;;-4.40;91.70;;;;;;5737159;24;20100;-76
2022/12/13 02:56:44;;;;;;;3.20;0.90;;;-4.30;91.70;;;;;;5794116;24;19957;-75
2022/12/13 02:59:31;;;;;;;1.48;0.80;;;-4.40;91.70;;;;;;5813771;24;20372;-75
2022/12/13 03:02:16;;;;;;;2.47;1.00;;;-4.40;91.70;;;;;;5811216;24;20015;-75
2022/12/13 03:08:34;;;;;;;1.75;0.80;;;-4.30;91.70;;;;;;6001788;23;20026;-75
2022/12/13 03:11:08;;;;;;;2.70;0.88;;;-4.20;91.70;;;;;;6006464;23;20012;-75
2022/12/13 03:13:54;;;;;;;1.45;0.80;;;-4.30;91.70;;;;;;6006257;23;20034;-75
2022/12/13 03:16:35;;;;;;;2.05;0.75;;;-4.40;91.60;;;;;;6003735;23;20070;-75
2022/12/13 03:19:05;;;;;;;1.85;0.73;;;-4.40;91.60;;;;;;6006354;23;20046;-75
2022/12/13 03:21:38;;;;;;;1.25;0.55;;;-4.40;91.70;;;;;;6091968;23;20540;-75
2022/12/13 03:24:04;;;;;;;1.48;0.73;;;-4.40;91.70;;;;;;6113810;23;20021;-75
2022/12/13 03:26:30;;;;;;;1.52;0.80;;;-4.40;91.70;;;;;;6153649;23;20017;-75
2022/12/13 03:28:55;;;;;;;1.40;0.70;;;-4.40;91.70;;;;;;6153721;23;20370;-75
2022/12/13 03:31:21;;;;;;;2.40;0.98;;;-4.40;91.70;;;;;;6142192;23;20018;-75
2022/12/13 03:33:47;;;;;;;1.67;0.65;;;-4.50;91.70;;;;;;6123505;23;20010;-76
2022/12/13 03:36:13;;;;;;;1.67;1.00;;;-4.50;91.70;;;;;;6140816;23;20044;-75
2022/12/13 03:38:39;;;;;;;1.73;0.50;;;-4.40;91.80;;;;;;6153202;23;20434;-76
2022/12/13 03:41:09;;;;;;;2.47;0.80;;;-4.50;91.80;;;;;;6153292;23;20076;-76
2022/12/13 03:43:35;;;;;;;1.48;0.70;;;-4.40;91.80;;;;;;6153829;23;20004;-75
2022/12/13 03:46:00;;;;;;;2.13;0.80;;;-4.50;91.80;;;;;;6154039;23;20002;-75
2022/12/13 03:48:26;;;;;;;2.05;0.80;;;-4.40;91.80;;;;;;6153329;23;20411;-75
2022/12/13 03:50:53;;;;;;;1.77;0.80;;;-4.40;91.80;;;;;;6153545;23;20308;-76
2022/12/13 03:53:20;;;;;;;2.10;1.00;;;-4.40;91.80;;;;;;6153387;23;20010;-75
2022/12/13 03:55:46;;;;;;;1.48;0.60;;;-4.40;91.70;;;;;;6145266;23;20053;-75
2022/12/13 03:58:12;;;;;;;1.35;0.82;;;-4.40;91.70;;;;;;6153822;23;20014;-75
2022/12/13 04:00:37;;;;;;;2.53;0.80;;;-4.40;91.70;;;;;;6145860;23;20461;-75
2022/12/13 04:03:03;;;;;;;1.58;0.90;;;-4.60;91.70;;;;;;6153320;23;20020;-75
2022/12/13 04:05:29;;;;;;;1.65;0.82;;;-4.50;91.70;;;;;;6119187;23;20009;-75
2022/12/13 04:07:55;;;;;;;1.55;0.70;;;-4.50;91.80;;;;;;6124805;23;20069;-75
2022/12/13 04:10:21;;;;;;;1.15;0.80;;;-4.50;91.80;;;;;;6140519;23;20350;-75
2022/12/13 04:15:32;;;;;;;2.88;1.25;;;-4.50;91.80;;;;;;6153028;23;20017;-75
2022/12/13 04:17:57;;;;;;;1.70;0.80;;;-4.50;91.80;;;;;;6152909;23;20016;-75
2022/12/13 04:20:23;;;;;;;2.25;0.95;;;-4.50;91.80;;;;;;6153031;23;20088;-75
2022/12/13 04:22:49;;;;;;;2.22;0.82;;;-4.50;91.80;;;;;;6153241;23;20088;-75
2022/12/13 04:25:14;;;;;;;2.10;1.00;;;-4.50;91.80;;;;;;6153187;23;20032;-75
2022/12/13 04:27:40;;;;;;;1.60;0.77;;;-4.60;91.70;;;;;;6144736;23;20040;-75
2022/12/13 04:30:07;;;;;;;1.17;0.68;;;-4.60;91.80;;;;;;6153251;23;20041;-75
2022/12/13 04:32:32;;;;;;;2.25;1.15;;;-4.60;91.80;;;;;;6153373;23;20017;-75
2022/12/13 04:34:59;;;;;;;2.58;1.00;;;-4.60;91.80;;;;;;6153320;23;20006;-75
2022/12/13 04:37:24;;;;;;;1.55;0.75;;;-4.60;91.80;;;;;;6153651;23;20014;-75
2022/12/13 04:39:50;;;;;;;2.65;0.90;;;-4.60;91.80;;;;;;6153380;23;20033;-75
2022/12/13 04:42:16;;;;;;;2.20;0.93;;;-4.50;91.80;;;;;;6138262;23;20002;-75
2022/12/13 04:44:41;;;;;;;1.45;0.70;;;-4.60;91.80;;;;;;6121327;23;20021;-76
2022/12/13 04:47:07;;;;;;;1.65;0.70;;;-4.50;91.80;;;;;;6153226;23;20374;-76
2022/12/13 04:49:33;;;;;;;2.75;1.00;;;-4.50;91.80;;;;;;6153356;23;20009;-76
2022/12/13 04:51:59;;;;;;;2.75;1.10;;;-4.50;91.80;;;;;;6122838;23;20021;-75
2022/12/13 04:54:25;;;;;;;2.33;0.95;;;-4.50;91.80;;;;;;6143122;23;20068;-76
2022/12/13 04:56:50;;;;;;;1.92;0.80;;;-4.50;91.80;;;;;;6099972;23;20006;-75
2022/12/13 04:59:16;;;;;;;1.88;0.77;;;-4.50;91.80;;;;;;6153360;23;20036;-76
2022/12/13 05:01:41;;;;;;;2.05;0.80;;;-4.50;91.70;;;;;;6153586;23;20064;-75
2022/12/13 05:04:07;;;;;;;2.83;0.88;;;-4.50;91.70;;;;;;6153982;23;20006;-75
2022/12/13 05:06:33;;;;;;;1.42;0.60;;;-4.60;91.70;;;;;;6153730;23;20009;-75
2022/12/13 05:09:00;;;;;;;1.70;0.75;;;-4.60;91.70;;;;;;6153831;23;20025;-75
2022/12/13 05:11:26;;;;;;;1.55;0.73;;;-4.60;91.80;;;;;;6143843;23;20020;-75
2022/12/13 05:13:51;;;;;;;2.05;0.80;;;-4.60;91.70;;;;;;6124264;23;20013;-76
2022/12/13 05:16:17;;;;;;;4.22;1.30;;;-4.60;91.70;;;;;;6153770;23;20060;-75
2022/12/13 05:18:42;;;;;;;1.73;0.80;;;-4.60;91.70;;;;;;6153611;23;20064;-75
2022/12/13 05:21:10;;;;;;;2.15;0.98;;;-4.50;91.80;;;;;;6149180;23;20318;-75
2022/12/13 05:23:36;;;;;;;2.35;0.88;;;-4.70;91.70;;;;;;6146232;23;20001;-75
2022/12/13 05:26:03;;;;;;;2.03;0.70;;;-4.60;91.80;;;;;;6153544;23;20006;-75
2022/12/13 05:28:29;;;;;;;1.55;0.80;;;-4.60;91.80;;;;;;6153260;23;20001;-75
2022/12/13 05:30:58;;;;;;;2.08;0.70;;;-4.60;91.70;;;;;;6146487;23;20445;-75
2022/12/13 05:33:25;;;;;;;2.25;1.00;;;-4.60;91.70;;;;;;6150597;23;20053;-75
2022/12/13 05:35:51;;;;;;;2.42;0.95;;;-4.50;91.70;;;;;;6126746;23;20033;-75
2022/12/13 05:38:17;;;;;;;1.73;0.77;;;-4.50;91.70;;;;;;6153632;23;20111;-75
2022/12/13 05:40:42;;;;;;;1.05;0.70;;;-4.50;91.70;;;;;;6154702;23;20059;-76
2022/12/13 05:43:10;;;;;;;1.70;0.82;;;-4.50;91.70;;;;;;6155112;23;20101;-75
2022/12/13 05:45:35;;;;;;;2.30;0.90;;;-4.50;91.70;;;;;;6155078;23;20006;-75
2022/12/13 05:48:01;;;;;;;2.15;0.93;;;-4.50;91.70;;;;;;6154186;23;20024;-75
2022/12/13 05:50:27;;;;;;;1.83;0.85;;;-4.50;91.70;;;;;;6154585;23;20063;-75
2022/12/13 05:52:52;;;;;;;1.90;0.90;;;-4.50;91.70;;;;;;6154091;23;20379;-75
2022/12/13 05:55:18;;;;;;;3.13;0.88;;;-4.50;91.70;;;;;;6154313;23;20020;-75
2022/12/13 05:57:44;;;;;;;2.05;0.82;;;-4.60;91.70;;;;;;6145955;23;20088;-76
2022/12/13 06:00:10;;;;;;;1.85;0.90;;;-4.60;91.70;;;;;;6154110;23;20012;-75
2022/12/13 06:02:38;;;;;;;1.42;0.98;;;-4.60;91.70;;;;;;6154231;23;20006;-76
2022/12/13 06:05:05;;;;;;;1.77;1.00;;;-4.60;91.70;;;;;;6127402;23;20014;-75
2022/12/13 06:07:31;;;;;;;1.85;0.80;;;-4.70;91.70;;;;;;6121717;23;20014;-75
2022/12/13 06:09:57;;;;;;;1.55;0.88;;;-4.70;91.70;;;;;;6152600;23;20072;-76
2022/12/13 06:12:23;;;;;;;1.95;1.00;;;-4.60;91.80;;;;;;6143150;23;20013;-76
2022/12/13 06:14:49;;;;;;;1.88;0.80;;;-4.70;91.80;;;;;;6152472;23;20021;-76
2022/12/13 06:17:14;;;;;;;1.17;0.80;;;-4.70;91.80;;;;;;6154074;23;20006;-76
2022/12/13 06:19:40;;;;;;;3.15;0.90;;;-4.70;91.80;;;;;;6154292;23;20073;-76
2022/12/13 06:22:06;;;;;;;2.08;0.70;;;-4.70;91.80;;;;;;6152256;23;20006;-76
2022/12/13 06:24:32;;;;;;;1.65;0.75;;;-4.70;91.80;;;;;;6154108;23;19998;-76
2022/12/13 06:26:59;;;;;;;1.55;0.95;;;-4.70;91.80;;;;;;6154278;23;20001;-76
2022/12/13 06:29:25;;;;;;;1.02;0.63;;;-4.70;91.80;;;;;;6154857;23;20432;-76
2022/12/13 06:31:57;;;;;;;1.98;0.90;;;-4.70;91.80;;;;;;6154274;23;20331;-76
2022/12/13 06:34:23;;;;;;;2.67;1.00;;;-4.70;91.80;;;;;;6118191;23;20044;-76
2022/12/13 06:36:48;;;;;;;2.00;1.08;;;-4.70;91.80;;;;;;6154500;23;20016;-76
2022/12/13 06:39:14;;;;;;;2.55;0.90;;;-4.70;91.80;;;;;;6154122;23;20058;-76
2022/12/13 06:41:40;;;;;;;2.20;0.98;;;-4.70;91.80;;;;;;6147363;23;20032;-76
2022/12/13 06:44:06;;;;;;;2.10;0.82;;;-4.70;91.80;;;;;;6154322;23;20382;-76
2022/12/13 06:46:32;;;;;;;2.42;1.00;;;-4.70;91.80;;;;;;6154043;23;20005;-76
2022/12/13 06:48:57;;;;;;;2.38;1.00;;;-4.80;91.80;;;;;;6127970;23;20072;-76
2022/12/13 06:51:23;;;;;;;2.78;1.10;;;-4.80;91.80;;;;;;6154179;23;20006;-76
2022/12/13 06:53:48;;;;;;;4.05;1.10;;;-4.80;91.80;;;;;;6154792;23;20089;-76
2022/12/13 06:56:14;;;;;;;2.40;0.70;;;-4.70;91.90;;;;;;6138907;23;20013;-77
2022/12/13 06:58:41;;;;;;;2.28;0.90;;;-4.80;91.80;;;;;;6099730;23;20101;-77
2022/12/13 07:01:10;;;;;;;3.08;0.85;;;-4.70;91.80;;;;;;6154434;23;20001;-77
2022/12/13 07:03:37;;;;;;;2.05;0.90;;;-4.70;91.80;;;;;;6153850;23;20001;-77
2022/12/13 07:06:05;;;;;;;1.65;0.75;;;-4.70;91.80;;;;;;6154153;23;20001;-78
2022/12/13 07:08:31;;;;;;;3.22;0.85;;;-4.70;91.80;;;;;;6127760;23;20006;-78
2022/12/13 07:10:57;;;;;;;2.00;0.80;;;-4.60;91.80;;;;;;6153797;23;20009;-78
2022/12/13 07:13:23;;;;;;;2.83;1.00;;;-4.70;91.70;;;;;;6152598;23;20006;-78
2022/12/13 07:15:49;;;;;;;3.00;1.00;;;-4.50;91.80;;;;;;6154092;23;20006;-78
2022/12/13 07:18:15;;;;;;;2.30;0.80;;;-4.60;91.70;;;;;;6154528;23;20444;-75
2022/12/13 07:20:42;;;;;;;1.65;0.80;;;-4.70;91.70;;;;;;6153692;23;20032;-75
2022/12/13 07:23:08;;;;;;;1.90;0.90;;;-4.60;91.70;;;;;;6139921;23;20001;-75
2022/12/13 07:25:33;;;;;;;2.08;1.00;;;-4.60;91.70;;;;;;6153710;23;20033;-75
2022/12/13 07:28:02;;;;;;;2.47;1.10;;;-4.60;91.70;;;;;;6153518;23;20067;-75
2022/12/13 07:30:28;;;;;;;2.38;0.70;;;-4.60;91.70;;;;;;6154115;23;20043;-75
2022/12/13 07:32:54;;;;;;;1.73;0.82;;;-4.70;91.70;;;;;;6127398;23;20009;-75
2022/12/13 07:35:19;;;;;;;2.30;1.10;;;-4.60;91.70;;;;;;6142349;23;20036;-75
2022/12/13 07:37:45;;;;;;;3.53;1.40;;;-4.60;91.70;;;;;;6122575;23;20010;-75
2022/12/13 07:40:11;;;;;;;1.15;0.75;;;-4.70;91.70;;;;;;6136538;23;20005;-75
2022/12/13 07:42:37;;;;;;;1.88;0.70;;;-4.60;91.70;;;;;;6153893;23;20006;-75
2022/12/13 07:45:02;;;;;;;2.40;0.95;;;-4.60;91.70;;;;;;6126683;23;20037;-75
2022/12/13 07:47:29;;;;;;;2.05;0.95;;;-4.70;91.70;;;;;;6156400;23;20020;-75
2022/12/13 07:50:34;;;;;;;1.83;0.88;;;-4.70;91.70;;;;;;6126287;23;20323;-75
2022/12/13 07:53:09;;;;;;;1.58;0.88;;;-4.60;91.70;;;;;;6102612;23;20061;-75
2022/12/13 07:55:36;;;;;;;2.72;1.27;;;-4.70;91.70;;;;;;6064416;23;20107;-75
2022/12/13 07:58:05;;;;;;;2.30;0.90;;;-4.60;91.70;;;;;;6067439;23;20033;-75
2022/12/13 08:00:31;;;;;;;1.98;0.85;;;-4.60;91.70;;;;;;6093191;23;20054;-74
2022/12/13 08:02:56;;;;;;;3.65;1.10;;;-4.70;91.70;;;;;;6091752;23;20018;-74
2022/12/13 08:05:23;;;;;;;2.63;0.90;;;-4.60;91.70;;;;;;6092564;23;20021;-74
2022/12/13 08:07:49;;;;;;;2.35;1.00;;;-4.70;91.70;;;;;;6092258;23;20042;-75
2022/12/13 08:10:17;;;;;;;2.28;0.98;;;-4.60;91.70;;;;;;6093096;23;20078;-75
2022/12/13 08:12:46;;;;;;;1.58;0.90;;;-4.60;91.70;;;;;;5982846;23;20019;-74
2022/12/13 08:15:11;;;;;;;2.10;1.00;;;-4.60;91.70;;;;;;6006396;23;20067;-72
2022/12/13 08:17:37;;;;;;;2.85;1.00;;;-4.50;91.70;;;;;;5959467;23;20468;-73
2022/12/13 08:20:04;;;;;;;2.20;0.85;;;-4.50;91.70;;;;;;6020193;23;20019;-72
2022/12/13 08:22:29;;;;;;;1.70;0.90;;;-4.50;91.70;;;;;;6015528;23;20187;-73
2022/12/13 08:24:55;;;;;;;2.55;0.90;;;-4.50;91.60;;;;;;6064130;23;20320;-72
2022/12/13 08:27:21;;;;;;;1.95;0.75;;;-4.40;91.60;;;;;;6063587;23;20031;-74
2022/12/13 08:29:46;;;;;;;1.50;0.70;;;-4.40;91.60;;;;;;6063758;23;20043;-73
2022/12/13 08:32:12;;;;;;;1.95;1.02;;;-4.40;91.60;;;;;;6063860;23;20313;-74
2022/12/13 08:34:40;;;;;;;2.53;0.80;;;-4.40;91.60;;;;;;6064113;23;20022;-74
2022/12/13 08:37:05;;;;;;;1.80;0.88;;;-4.20;91.60;;;;;;6063852;23;20016;-74
2022/12/13 08:39:34;;;;;;;1.50;0.80;;;-4.30;91.60;;;;;;6063346;23;20014;-74
2022/12/13 08:41:59;;;;;;;3.20;0.93;;;-4.20;91.80;;;;;;6039797;23;20003;-75
2022/12/13 08:44:25;;;;;;;2.85;1.00;;;-4.20;91.50;;;;;;6147677;23;20343;-74
2022/12/13 08:46:51;;;;;;;1.95;1.02;;;-4.10;91.50;;;;;;6153855;23;20017;-74
2022/12/13 08:49:16;;;;;;;2.38;0.98;;;-4.10;91.50;;;;;;6154043;23;20060;-74
2022/12/13 08:51:42;;;;;;;1.42;0.70;;;-4.10;91.50;;;;;;6151380;23;20330;-74
2022/12/13 08:54:10;;;;;;;1.95;0.85;;;-4.00;91.50;;;;;;6153573;23;20104;-76
2022/12/13 08:56:38;;;;;;;2.92;1.05;;;-3.90;91.40;;;;;;6151524;23;20324;-77
2022/12/13 08:59:04;;;;;;;2.15;1.08;;;-3.90;91.40;;;;;;6151896;23;20009;-75
2022/12/13 09:01:30;;;;;;;3.47;1.00;;;-3.80;91.40;;;;;;6152508;23;20427;-73
2022/12/13 09:03:56;;;;;;;0.88;0.63;;;-3.80;91.30;;;;;;6153036;23;20022;-72
2022/12/13 09:06:22;;;;;;;2.25;1.00;;;-3.80;91.60;;;;;;6151661;23;20041;-72
2022/12/13 09:08:47;;;;;;;2.30;1.10;;;-3.80;91.60;;;;;;6153929;23;20020;-73
2022/12/13 09:11:13;;;;;;;1.67;0.80;;;-3.70;91.30;;;;;;6151789;23;20017;-72
2022/12/13 09:13:39;;;;;;;2.85;1.20;;;-3.70;91.30;;;;;;6151480;23;20338;-74
2022/12/13 09:16:08;;;;;;;1.88;0.73;;;-3.50;91.30;;;;;;6153362;23;20524;-72
2022/12/13 09:18:34;;;;;;;1.75;0.88;;;-3.50;91.30;;;;;;6153274;23;20016;-73
2022/12/13 09:20:59;;;;;;;1.88;0.82;;;-3.50;91.30;;;;;;6151518;23;20097;-72
2022/12/13 09:23:25;;;;;;;2.15;1.00;;;-3.50;91.20;;;;;;6127190;23;20033;-72
2022/12/13 09:25:54;;;;;;;2.20;1.00;;;-3.50;91.20;;;;;;6126968;23;19997;-72
2022/12/13 09:28:20;;;;;;;2.33;0.90;;;-3.30;91.20;;;;;;6153431;23;20006;-72
2022/12/13 09:30:46;;;;;;;3.25;1.08;;;-3.40;91.20;;;;;;6153789;23;20021;-73
2022/12/13 09:33:12;;;;;;;3.08;0.98;;;-3.30;91.20;;;;;;6153150;23;20024;-73
2022/12/13 09:35:38;;;;;;;2.22;1.10;;;-3.30;91.20;;;;;;6153323;23;20012;-74
2022/12/13 09:38:03;;;;;;;2.03;0.95;;;-3.30;91.20;;;;;;6153314;23;20024;-74
2022/12/13 09:40:30;;;;;;;1.90;0.88;;;-3.20;91.20;;;;;;6152871;23;20005;-72
2022/12/13 09:42:58;;;;;;;1.40;0.88;;;-3.20;91.20;;;;;;6152908;23;20060;-72
2022/12/13 09:45:24;;;;;;;3.25;1.00;;;-3.10;91.20;;;;;;6152846;23;20009;-72
2022/12/13 09:47:51;;;;;;;3.15;1.20;;;-3.10;91.20;;;;;;6151785;23;20009;-71
2022/12/13 09:50:25;;;;;;;3.20;1.27;;;-3.00;91.20;;;;;;6152739;23;20500;-74
2022/12/13 09:52:51;;;;;;;3.00;1.02;;;-3.10;91.10;;;;;;6151570;23;20052;-75
2022/12/13 09:55:24;;;;;;;1.80;0.90;;;-3.00;91.10;;;;;;6151301;23;20017;-71
2022/12/13 09:57:51;;;;;;;2.78;1.20;;;-3.00;91.10;;;;;;6153419;23;20068;-72
2022/12/13 10:00:20;;;;;;;1.73;0.85;;;-2.90;91.20;;;;;;6152777;23;20062;-72
2022/12/13 10:02:50;;;;;;;2.97;1.30;;;-3.00;91.10;;;;;;6151797;23;20364;-73
2022/12/13 10:05:38;;;;;;;2.72;1.10;;;-3.00;91.20;;;;;;6175764;23;20144;-73
2022/12/13 10:08:13;;;;;;;3.03;0.80;;;-2.70;91.20;;;;;;6175803;23;20018;-75
2022/12/13 10:10:42;;;;;;;2.35;0.90;;;-2.80;91.20;;;;;;6175965;23;20006;-75
2022/12/13 10:13:18;;;;;;;2.58;1.00;;;-2.80;91.20;;;;;;6127763;23;20438;-74
2022/12/13 10:15:53;;;;;;;2.15;0.80;;;-2.80;91.10;;;;;;6151320;23;20009;-73
2022/12/13 10:18:33;;;;;;;2.58;1.13;;;-2.70;91.10;;;;;;6152324;23;20013;-75
2022/12/13 10:21:02;;;;;;;3.17;1.27;;;-2.80;91.10;;;;;;6151293;23;19998;-74
2022/12/13 10:23:27;;;;;;;2.38;1.00;;;-2.70;91.10;;;;;;6175825;23;20080;-73
2022/12/13 10:25:54;;;;;;;3.13;0.98;;;-2.70;91.10;;;;;;6152588;23;20413;-74
2022/12/13 10:28:32;;;;;;;2.42;0.85;;;-2.60;91.10;;;;;;6152444;23;20006;-73
2022/12/13 10:30:58;;;;;;;1.85;0.98;;;-2.70;91.10;;;;;;6152691;23;20056;-73
2022/12/13 10:33:35;;;;;;;1.77;0.88;;;-2.50;91.10;;;;;;6152752;23;20004;-73
2022/12/13 10:36:10;;;;;;;2.35;0.82;;;-2.60;91.10;;;;;;6152553;23;20010;-74
2022/12/13 10:38:39;;;;;;;2.17;1.00;;;-2.50;91.10;;;;;;6154453;23;20089;-74
2022/12/13 10:41:25;;;;;;;2.05;0.85;;;-2.50;91.10;;;;;;6153988;23;20439;-73
2022/12/13 10:44:07;;;;;;;2.28;0.90;;;-2.50;91.10;;;;;;6154513;23;20083;-72
2022/12/13 10:46:33;;;;;;;1.98;1.02;;;-2.40;91.10;;;;;;6153831;23;20016;-73
2022/12/13 10:48:58;;;;;;;1.80;0.90;;;-2.50;91.10;;;;;;6152292;23;20013;-73
2022/12/13 10:51:24;;;;;;;2.95;1.20;;;-2.50;91.10;;;;;;6153810;23;20016;-74
2022/12/13 10:53:54;;;;;;;2.45;0.80;;;-2.40;91.10;;;;;;6152274;23;20021;-75
2022/12/13 10:56:21;;;;;;;1.90;0.85;;;-2.40;91.10;;;;;;6153807;23;20021;-74
2022/12/13 10:58:51;;;;;;;1.92;1.10;;;-2.30;91.20;;;;;;6154131;23;20018;-73
2022/12/13 11:01:27;;;;;;;2.03;0.95;;;-2.30;91.10;;;;;;6177108;23;20020;-74
2022/12/13 11:04:04;;;;;;;2.35;0.85;;;-2.30;91.10;;;;;;6154167;23;20130;-74
2022/12/13 11:06:42;;;;;;;2.92;1.13;;;-2.20;91.10;;;;;;6153953;23;20076;-74
2022/12/13 11:09:23;;;;;;;2.50;1.00;;;-2.10;91.10;;;;;;6152338;23;19997;-75
2022/12/13 11:11:51;;;;;;;2.05;1.02;;;-2.10;91.00;;;;;;6153723;23;20005;-73
2022/12/13 11:14:20;;;;;;;1.30;0.90;;;-2.00;91.00;;;;;;6152478;23;20492;-73
2022/12/13 11:16:52;;;;;;;2.40;1.00;;;-1.90;91.00;;;;;;6152067;23;20378;-73
2022/12/13 11:19:23;;;;;;;3.42;1.10;;;-1.90;91.00;;;;;;6152595;23;20092;-72
2022/12/13 11:21:51;;;;;;;2.47;1.10;;;-1.80;91.00;;;;;;6153623;23;20009;-73
2022/12/13 11:24:27;;;;;;;3.13;1.20;;;-1.70;91.00;;;;;;6153713;23;20010;-72
2022/12/13 11:26:57;;;;;;;2.88;1.30;;;-1.70;91.00;;;;;;6176897;23;20037;-72
2022/12/13 11:29:53;;;;;;;2.05;1.02;;;-1.60;90.90;;;;;;6153691;23;20006;-72
2022/12/13 11:32:45;;;;;;;1.50;0.70;;;-1.60;90.90;;;;;;6153447;23;20013;-73
2022/12/13 11:35:37;;;;;;;2.13;0.85;;;-1.50;90.90;;;;;;6153453;23;20431;-73
2022/12/13 11:38:27;;;;;;;2.10;1.05;;;-1.50;90.80;;;;;;6152780;23;20056;-73
2022/12/13 11:40:58;;;;;;;2.22;0.90;;;-1.50;90.80;;;;;;6152165;23;20014;-73
2022/12/13 11:43:35;;;;;;;2.22;0.90;;;-1.40;90.80;;;;;;6154347;23;20084;-72
2022/12/13 11:46:10;;;;;;;1.83;0.95;;;-1.40;90.80;;;;;;6152843;23;20449;-73
2022/12/13 11:48:43;;;;;;;2.58;1.20;;;-1.40;90.90;;;;;;6154283;23;20020;-72
2022/12/13 11:51:39;;;;;;;1.90;0.82;;;-1.40;90.90;;;;;;6152670;23;20021;-74
2022/12/13 11:54:14;;;;;;;1.38;0.82;;;-1.20;90.90;;;;;;6131065;23;20457;-73
2022/12/13 11:56:42;;;;;;;1.95;0.95;;;-1.30;90.80;;;;;;6153890;23;20430;-73
2022/12/13 11:59:36;;;;;;;2.35;0.90;;;-1.20;90.80;;;;;;6176813;23;20018;-75
2022/12/13 12:02:15;;;;;;;2.30;0.82;;;-1.20;90.90;;;;;;6153688;23;19997;-75
2022/12/13 12:04:48;;;;;;;3.03;1.27;;;-1.20;90.80;;;;;;6176866;23;20018;-74
2022/12/13 12:07:18;;;;;;;1.90;1.02;;;-1.20;90.80;;;;;;6154045;23;19997;-75
2022/12/13 12:09:54;;;;;;;2.83;1.15;;;-1.10;90.80;;;;;;6176959;23;20382;-75
2022/12/13 12:12:34;;;;;;;3.45;1.17;;;-1.10;90.80;;;;;;6152197;23;20013;-75
2022/12/13 12:15:22;;;;;;;2.28;1.08;;;-1.10;90.80;;;;;;6152034;23;20012;-75
2022/12/13 12:17:48;;;;;;;2.63;1.13;;;-1.20;90.90;;;;;;6176942;23;20005;-75
2022/12/13 12:20:20;;;;;;;2.47;1.08;;;-1.20;90.90;;;;;;6153625;23;20013;-75
2022/12/13 12:22:57;;;;;;;2.35;1.17;;;-1.20;90.80;;;;;;6128541;23;20001;-75
2022/12/13 12:25:51;;;;;;;2.42;1.00;;;-1.10;90.90;;;;;;6152176;23;20422;-75
2022/12/13 12:28:41;;;;;;;2.70;1.05;;;-1.10;90.90;;;;;;6152623;23;20124;-75
2022/12/13 12:31:30;;;;;;;2.72;1.00;;;-1.10;90.90;;;;;;6153740;23;20112;-75
2022/12/13 12:34:17;;;;;;;2.50;1.08;;;-1.10;90.90;;;;;;6153789;23;20450;-76
2022/12/13 12:37:05;;;;;;;1.85;1.02;;;-1.10;90.90;;;;;;6153805;23;20025;-75
2022/12/13 12:39:42;;;;;;;2.72;1.17;;;-1.10;90.90;;;;;;6153978;23;20434;-75
2022/12/13 12:42:32;;;;;;;1.63;1.05;;;-1.10;90.90;;;;;;6152613;23;20072;-75
2022/12/13 12:45:14;;;;;;;2.10;1.05;;;-1.10;91.00;;;;;;6176787;23;20020;-75
2022/12/13 12:47:48;;;;;;;;;;;-1.10;91.00;;;;;;6154393;23;20024;-75
2022/12/13 12:50:35;;;;;;;3.17;1.20;;;-1.10;91.00;;;;;;6153360;23;19987;-75
2022/12/13 12:53:20;;;;;;;2.20;1.00;;;-1.00;91.00;;;;;;6151979;23;20012;-75
2022/12/13 12:56:23;;;;;;;2.60;0.88;;;-1.00;91.00;;;;;;6153556;23;20036;-75
2022/12/13 12:59:11;;;;;;;2.08;0.98;;;-1.00;91.00;;;;;;6153367;23;20021;-75
2022/12/13 13:01:59;;;;;;;3.45;0.85;;;-1.00;90.90;;;;;;6151930;23;20021;-75
2022/12/13 13:04:31;;;;;;;1.70;0.85;;;-0.90;90.90;;;;;;6153682;23;20006;-75
2022/12/13 13:07:06;;;;;;;2.88;1.10;;;-0.90;90.90;;;;;;6153541;23;20002;-74
2022/12/13 13:09:32;;;;;;;1.90;0.93;;;-0.90;90.80;;;;;;6153510;23;20002;-75
2022/12/13 13:12:03;;;;;;;2.05;1.10;;;-0.90;90.80;;;;;;6151907;23;19998;-75
2022/12/13 13:14:32;;;;;;;2.53;1.13;;;-0.90;90.90;;;;;;6151187;23;20378;-75
2022/12/13 13:17:01;;;;;;;3.42;0.95;;;-0.80;90.80;;;;;;6153722;23;20411;-75
2022/12/13 13:19:40;;;;;;;3.47;1.20;;;-0.80;90.80;;;;;;6151697;23;20430;-75
2022/12/13 13:22:26;;;;;;;1.92;1.00;;;-0.80;90.80;;;;;;6153386;23;20081;-75
2022/12/13 13:25:19;;;;;;;2.85;1.00;;;-0.80;90.80;;;;;;6153402;23;20358;-75
2022/12/13 13:27:46;;;;;;;1.67;0.80;;;-0.70;90.80;;;;;;6152951;23;20088;-75
2022/12/13 13:30:19;;;;;;;1.77;1.00;;;-0.70;90.80;;;;;;6153233;23;20133;-75
2022/12/13 13:32:45;;;;;;;2.30;0.98;;;-0.70;90.80;;;;;;6153025;23;20345;-75
2022/12/13 13:35:46;;;;;;;2.67;1.00;;;-0.70;90.80;;;;;;6153122;23;20013;-74
2022/12/13 13:38:45;;;;;;;3.08;1.10;;;-0.70;90.80;;;;;;6131351;23;20438;-75
2022/12/13 13:41:38;;;;;;;2.58;1.10;;;-0.80;90.80;;;;;;6152020;23;20316;-75
2022/12/13 13:44:36;;;;;;;1.88;1.02;;;-0.80;90.80;;;;;;6153405;23;20129;-75
2022/12/13 13:47:13;;;;;;;2.80;1.23;;;-0.80;90.90;;;;;;6152641;23;20056;-75
2022/12/13 13:50:07;;;;;;;1.90;1.00;;;-0.80;90.90;;;;;;6152696;23;20068;-75
2022/12/13 13:53:06;;;;;;;2.15;1.00;;;-0.90;90.90;;;;;;6130324;23;20010;-73
2022/12/13 13:55:53;;;;;;;2.58;1.05;;;-0.80;90.90;;;;;;6151416;23;20021;-75
2022/12/13 13:58:46;;;;;;;1.63;1.00;;;-0.80;90.90;;;;;;6153224;23;20006;-75
2022/12/13 14:01:37;;;;;;;1.77;0.88;;;-0.90;90.90;;;;;;6152756;23;20140;-75
2022/12/13 14:04:27;;;;;;;2.30;0.80;;;-0.90;90.90;;;;;;6153580;23;20406;-75
2022/12/13 14:07:27;;;;;;;1.90;1.17;;;-0.90;91.00;;;;;;6154170;23;20005;-76
2022/12/13 14:10:21;;;;;;;2.58;1.38;;;-0.90;91.00;;;;;;6154097;23;20008;-76
2022/12/13 14:13:12;;;;;;;1.90;1.08;;;-1.00;90.90;;;;;;6128002;23;19997;-75
2022/12/13 14:16:02;;;;;;;2.15;1.00;;;-0.90;91.00;;;;;;6152809;23;20423;-76
2022/12/13 14:19:03;;;;;;;2.63;1.00;;;-0.90;91.00;;;;;;6154617;23;20021;-75
2022/12/13 14:21:52;;;;;;;3.00;1.40;;;-1.00;91.00;;;;;;6154275;23;20434;-76
2022/12/13 14:24:37;;;;;;;1.23;0.70;;;-1.00;91.00;;;;;;6155235;23;20712;-77